Data for 06/18/2006

Time Sea-Level Adjusted Pressure Absolute Pressure Temperature Relative Humidity Dew Point   
(mb) (inHg) (mb) (inHg) (C) (F) (%) (C) (F)
00:05 1021 30.15 850 25.1 11.2 52.1 52 1.7 35.1
00:10 1021 30.15 850 25.1 11.1 51.9 53 1.8 35.2
00:15 1021 30.15 850 25.1 10.8 51.5 53 1.7 35
00:20 1021 30.15 850 25.1 10.7 51.2 54 1.8 35.2
00:25 1021 30.15 850 25.1 10.6 51 55 1.9 35.3
00:30 1021 30.15 850 25.1 10.4 50.8 56 2 35.6
00:35 1021 30.15 850 25.1 10.3 50.6 54 1.5 34.6
00:40 1021 30.15 851 25.13 10.4 50.7 56 2.1 35.7
00:45 1021 30.15 851 25.13 10.5 50.8 54 1.6 34.9
00:50 1021 30.15 851 25.13 10.5 50.8 55 1.8 35.3
00:55 1021 30.15 851 25.13 10.2 50.4 56 1.9 35.4
01:00 1021 30.15 851 25.13 10 50 57 1.8 35.3
01:05 1021 30.15 851 25.13 9.8 49.7 58 1.9 35.4
01:10 1022 30.18 851 25.13 9.7 49.5 57 1.7 35.1
01:15 1022 30.18 851 25.13 9.8 49.6 57 1.6 34.9
01:20 1022 30.18 851 25.13 9.9 49.8 57 1.8 35.2
01:25 1022 30.18 851 25.13 9.9 49.9 56 1.6 34.8
01:30 1022 30.18 851 25.13 9.9 49.9 56 1.6 34.9
01:35 1022 30.18 851 25.13 9.8 49.6 57 1.6 34.8
01:40 1022 30.18 851 25.13 9.6 49.2 58 1.7 35.1
01:45 1022 30.18 851 25.13 9.6 49.2 57 1.6 34.9
01:50 1022 30.18 851 25.13 9.7 49.4 57 1.7 35
01:55 1022 30.18 851 25.13 9.6 49.2 58 1.7 35
02:00 1022 30.18 851 25.13 9.5 49.2 58 1.7 35.1
02:05 1022 30.18 851 25.13 9.5 49.1 58 1.8 35.2
02:10 1022 30.18 851 25.13 9.4 49 59 1.7 35.1
02:15 1022 30.18 851 25.13 9.3 48.7 59 1.9 35.3
02:20 1022 30.18 851 25.13 9 48.2 59 1.6 34.8
02:25 1022 30.18 851 25.13 9 48.1 59 1.4 34.5
02:30 1022 30.18 851 25.13 9.3 48.8 58 1.5 34.7
02:35 1022 30.18 851 25.13 8.9 48 62 2 35.6
02:40 1022 30.18 851 25.13 8.4 47.2 62 1.6 35
02:45 1022 30.18 851 25.13 8.3 47 63 1.8 35.3
02:50 1022 30.18 851 25.13 8.3 46.9 63 1.6 34.9
02:55 1022 30.18 851 25.13 8.2 46.7 64 1.9 35.4
03:00 1022 30.18 851 25.13 8 46.5 64 1.7 35
03:05 1022 30.18 851 25.13 8 46.4 64 1.5 34.8
03:10 1022 30.18 851 25.13 8.1 46.6 63 1.5 34.7
03:15 1022 30.18 851 25.13 8.2 46.8 63 1.7 35.1
03:20 1022 30.18 851 25.13 8 46.4 65 1.9 35.4
03:25 1022 30.18 851 25.13 7.7 45.9 66 1.8 35.2
03:30 1022 30.18 851 25.13 7.6 45.7 65 1.6 34.8
03:35 1022 30.18 851 25.13 7.6 45.6 67 1.8 35.3
03:40 1022 30.18 851 25.13 7.3 45.2 66 1.5 34.7
03:45 1022 30.18 851 25.13 7.3 45.2 67 1.6 34.9
03:50 1022 30.18 851 25.13 7.2 44.9 68 1.6 34.9
03:55 1022 30.18 851 25.13 7.1 44.8 68 1.6 34.8
04:00 1022 30.18 851 25.13 7 44.6 68 1.5 34.8
04:05 1022 30.18 851 25.13 7 44.6 68 1.5 34.6
04:10 1022 30.18 851 25.13 7.1 44.8 68 1.5 34.7
04:15 1022 30.18 851 25.13 7.1 44.7 68 1.6 34.9
04:20 1022 30.18 851 25.13 6.8 44.3 69 1.6 34.9
04:25 1022 30.18 851 25.13 6.6 43.9 70 1.5 34.8
04:30 1022 30.18 851 25.13 6.7 44 69 1.4 34.5
04:35 1022 30.18 851 25.13 6.7 44.1 69 1.5 34.7
04:40 1022 30.18 851 25.13 6.7 44 69 1.5 34.7
04:45 1022 30.18 851 25.13 6.5 43.6 71 1.6 34.9
04:50 1022 30.18 851 25.13 6.2 43.2 71 1.4 34.6
04:55 1022 30.18 851 25.13 5.9 42.7 73 1.5 34.7
05:00 1022 30.18 851 25.13 5.7 42.2 74 1.4 34.6
05:05 1022 30.18 851 25.13 5.5 41.8 75 1.4 34.6
05:10 1022 30.18 851 25.13 5.5 41.9 74 1.3 34.3
05:15 1022 30.18 851 25.13 5.6 42 74 1.3 34.3
05:20 1022 30.18 851 25.13 5.4 41.7 76 1.5 34.6
05:25 1022 30.18 852 25.16 5.3 41.5 75 1.3 34.3
05:30 1022 30.18 852 25.16 5.5 41.9 75 1.4 34.5
05:35 1022 30.18 852 25.16 5.5 42 74 1.3 34.3
05:40 1022 30.18 852 25.16 5.6 42.1 73 1.2 34.2
05:45 1022 30.18 852 25.16 5.6 42.1 75 1.5 34.7
05:50 1022 30.18 852 25.16 5.3 41.6 75 1.3 34.4
05:55 1022 30.18 852 25.16 5.2 41.3 75 1.2 34.2
06:00 1022 30.18 852 25.16 5.2 41.4 75 1.1 34.1
06:05 1022 30.18 852 25.16 5.3 41.6 74 1.1 34
06:10 1022 30.18 852 25.16 5.6 42 73 1.1 34
06:15 1022 30.18 852 25.16 6 42.8 70 1 33.8
06:20 1022 30.18 852 25.16 6.7 44 67 1 33.8
06:25 1022 30.18 852 25.16 7 44.7 67 1.3 34.3
06:30 1022 30.18 852 25.16 7.1 44.7 68 1.5 34.7
06:35 1022 30.18 852 25.16 7.1 44.7 68 1.6 34.9
06:40 1022 30.18 852 25.16 7.1 44.8 68 1.6 35
06:45 1022 30.18 852 25.16 7.3 45.1 69 2 35.6
06:50 1023 30.21 852 25.16 7.4 45.3 66 1.5 34.7
06:55 1023 30.21 852 25.16 7.1 44.8 68 1.6 34.9
07:00 1023 30.21 852 25.16 7.4 45.2 67 1.6 34.9
07:05 1023 30.21 852 25.16 7.6 45.8 65 1.6 34.9
07:10 1023 30.21 852 25.16 7.7 45.8 66 1.6 35
07:15 1023 30.21 852 25.16 7.7 45.9 66 1.8 35.2
07:20 1022 30.18 852 25.16 7.9 46.3 65 1.8 35.2
07:25 1023 30.21 852 25.16 8 46.4 66 2.1 35.9
07:30 1023 30.21 852 25.16 8.3 46.9 65 2.2 35.9
07:35 1023 30.21 852 25.16 8.5 47.3 63 1.9 35.4
07:40 1023 30.21 852 25.16 9 48.1 63 2.3 36.1
07:45 1023 30.21 852 25.16 9.5 49.2 61 2.5 36.4
07:50 1023 30.21 852 25.16 9.3 48.8 61 2.2 36
07:55 1023 30.21 852 25.16 9.5 49.2 58 1.8 35.3
08:00 1023 30.21 852 25.16 9.8 49.7 59 2.3 36.1
08:05 1023 30.21 852 25.16 10.1 50.2 57 2.1 35.9
08:10 1023 30.21 852 25.16 11 51.8 54 2 35.6
08:15 1023 30.21 852 25.16 12.1 53.8 49 1.9 35.4
08:20 1023 30.21 852 25.16 12.5 54.5 49 2.1 35.7
08:25 1023 30.21 852 25.16 12.6 54.6 51 2.6 36.8
08:30 1023 30.21 852 25.16 13.1 55.5 48 2.3 36.1
08:35 1023 30.21 852 25.16 13.2 55.8 46 1.9 35.5
08:40 1023 30.21 852 25.16 13.4 56 47 2.3 36.2
08:45 1023 30.21 852 25.16 13.6 56.4 45 2 35.7
08:50 1023 30.21 852 25.16 14.1 57.3 44 2.2 35.9
08:55 1023 30.21 852 25.16 14.5 58 43 2 35.5
09:00 1023 30.21 852 25.16 14.3 57.7 45 2.5 36.4
09:05 1023 30.21 852 25.16 13.5 56.3 47 2.6 36.6
09:10 1023 30.21 852 25.16 14 57.1 46 2.6 36.7
09:15 1023 30.21 852 25.16 14.4 57.9 47 3.2 37.8
09:20 1023 30.21 852 25.16 14.5 58.1 45 2.8 37
09:25 1023 30.21 852 25.16 14.8 58.6 44 2.8 37.1
09:30 1023 30.21 852 25.16 15 59.1 45 3.1 37.7
09:35 1022 30.18 852 25.16 15 59 41 2.1 35.7
09:40 1022 30.18 852 25.16 15.2 59.3 39 1.4 34.6
09:45 1022 30.18 852 25.16 15.2 59.3 40 1.6 34.9
09:50 1022 30.18 852 25.16 15.4 59.7 40 1.9 35.3
09:55 1022 30.18 852 25.16 15.1 59.3 40 1.9 35.4
10:00 1022 30.18 852 25.16 15.2 59.4 39 1.4 34.6
10:05 1022 30.18 851 25.13 15.9 60.6 38 1.6 34.8
10:10 1022 30.18 851 25.13 15.5 59.9 40 2.1 35.8
10:15 1022 30.18 851 25.13 14.5 58 41 1.6 34.9
10:20 1022 30.18 851 25.13 15.3 59.6 36 0.5 32.9
10:25 1022 30.18 851 25.13 14.8 58.7 39 0.9 33.7
10:30 1022 30.18 851 25.13 15.6 60 35 0.4 32.8
10:35 1022 30.18 851 25.13 16.3 61.4 35 0.8 33.4
10:40 1022 30.18 851 25.13 16.5 61.7 33 0.4 32.7
10:45 1022 30.18 851 25.13 16.1 61.1 36 1.2 34.2
10:50 1022 30.18 851 25.13 16.3 61.3 33 -0 32
10:55 1022 30.18 851 25.13 16.7 62.1 33 0.7 33.2
11:00 1022 30.18 851 25.13 16.1 60.9 33 0.1 32.1
11:05 1022 30.18 851 25.13 16.9 62.4 31 -0.1 31.8
11:10 1022 30.18 851 25.13 16.1 61 33 -0.3 31.5
11:15 1022 30.18 851 25.13 16.5 61.6 32 -0 31.9
11:20 1022 30.18 851 25.13 17.2 62.9 30 -0.5 31.1
11:25 1022 30.18 851 25.13 17.5 63.6 30 -0 31.9
11:30 1022 30.18 851 25.13 17.9 64.2 32 1 33.8
11:35 1022 30.18 851 25.13 18 64.4 31 0.7 33.3
11:40 1022 30.18 851 25.13 17.8 64 31 0.3 32.6
11:45 1022 30.18 851 25.13 17.9 64.1 28 -0.8 30.5
11:50 1022 30.18 851 25.13 18.2 64.7 30 0.4 32.6
11:55 1022 30.18 851 25.13 18.4 65 29 0.2 32.4
12:00 1021 30.15 851 25.13 18.4 65.2 29 0.1 32.2
12:05 1021 30.15 851 25.13 18.5 65.2 28 -0.2 31.7
12:10 1021 30.15 851 25.13 19.1 66.3 28 0.5 32.9
12:15 1021 30.15 850 25.1 19.4 66.9 27 -0.1 31.8
12:20 1021 30.15 850 25.1 19.4 66.9 28 0.4 32.7
12:25 1021 30.15 850 25.1 18.9 66 27 -0.5 31.1
12:30 1021 30.15 850 25.1 18.5 65.2 27 -0.7 30.8
12:35 1021 30.15 850 25.1 18.6 65.5 27 -0.7 30.8
12:40 1021 30.15 850 25.1 18.9 66 26 -0.9 30.4
12:45 1021 30.15 850 25.1 19.5 67.1 26 -0.3 31.4
12:50 1021 30.15 850 25.1 18.8 65.9 25 -1.2 29.8
12:55 1021 30.15 850 25.1 18.7 65.6 26 -1.2 29.9
13:00 1021 30.15 850 25.1 18.2 64.7 26 -1.3 29.6
13:05 1021 30.15 850 25.1 19 66.2 25 -1.3 29.6
13:10 1021 30.15 850 25.1 19.4 66.9 25 -1.2 29.8
13:15 1021 30.15 850 25.1 19.9 67.8 24 -1.3 29.7
13:20 1021 30.15 850 25.1 20.1 68.2 24 -0.7 30.8
13:25 1021 30.15 850 25.1 19.6 67.3 26 -0.4 31.3
13:30 1021 30.15 850 25.1 19.9 67.9 23 -1.6 29.1
13:35 1021 30.15 850 25.1 18.7 65.7 25 -1.4 29.5
13:40 1021 30.15 850 25.1 19 66.3 26 -0.8 30.6
13:45 1021 30.15 850 25.1 20.1 68.2 25 -0.5 31.1
13:50 1021 30.15 850 25.1 20.4 68.8 25 0.1 32.1
13:55 1021 30.15 850 25.1 20.6 69.2 24 -0.4 31.3
14:00 1021 30.15 850 25.1 20.7 69.2 24 -0.4 31.3
14:05 1021 30.15 850 25.1 20.6 69.1 25 0.2 32.3
14:10 1021 30.15 850 25.1 20.6 69.1 26 0.4 32.8
14:15 1021 30.15 850 25.1 20.5 68.9 25 0.2 32.3
14:20 1021 30.15 850 25.1 20.6 69.1 24 -0.2 31.6
14:25 1021 30.15 850 25.1 20.6 69.2 25 0.3 32.5
14:30 1021 30.15 850 25.1 20.1 68.2 26 0.3 32.6
14:35 1021 30.15 850 25.1 19.4 66.9 26 -0.2 31.6
14:40 1021 30.15 850 25.1 20.7 69.2 24 -0.3 31.5
14:45 1020 30.12 850 25.1 21.3 70.4 24 -0 32
14:50 1020 30.12 850 25.1 21.1 69.9 25 0.6 33.1
14:55 1020 30.12 849 25.07 20.8 69.5 25 0.2 32.3
15:00 1020 30.12 849 25.07 21.5 70.6 25 0.6 33.1
15:05 1020 30.12 849 25.07 21.7 71.1 24 0.4 32.6
15:10 1020 30.12 849 25.07 21.8 71.3 24 0.4 32.7
15:15 1020 30.12 849 25.07 22.3 72.1 24 0.9 33.7
15:20 1020 30.12 849 25.07 21 69.8 26 0.7 33.3
15:25 1020 30.12 849 25.07 20.3 68.6 26 0.5 32.9
15:30 1020 30.12 849 25.07 20.6 69 25 0.2 32.3
15:35 1020 30.12 849 25.07 20.5 68.9 24 -0.4 31.4
15:40 1020 30.12 849 25.07 21.1 69.9 24 -0 32
15:45 1020 30.12 849 25.07 21.5 70.7 24 0.4 32.7
15:50 1020 30.12 849 25.07 21.2 70.1 27 1.4 34.5
15:55 1020 30.12 849 25.07 20.8 69.5 25 0.3 32.6
16:00 1020 30.12 849 25.07 20.6 69.2 25 -0.1 31.8
16:05 1020 30.12 849 25.07 21.1 69.9 25 0.5 32.9
16:10 1020 30.12 849 25.07 22 71.6 24 0.5 32.9
16:15 1020 30.12 849 25.07 22.5 72.4 22 -0.2 31.6
16:20 1020 30.12 849 25.07 22 71.6 22 -0.2 31.6
16:25 1020 30.12 849 25.07 22.7 72.9 21 -0.3 31.5
16:30 1020 30.12 849 25.07 23.2 73.7 21 0.2 32.3
16:35 1020 30.12 849 25.07 22 71.5 24 0.7 33.2
16:40 1020 30.12 849 25.07 22.3 72.1 21 -0.7 30.7
16:45 1020 30.12 849 25.07 23.1 73.6 20 -0.7 30.7
16:50 1020 30.12 849 25.07 22.8 73.1 21 -0.1 31.8
16:55 1020 30.12 849 25.07 21.6 70.9 24 0.1 32.3
17:00 1020 30.12 849 25.07 20.9 69.7 24 0.1 32.1
17:05 1020 30.12 849 25.07 21.5 70.7 25 1 33.7
17:10 1020 30.12 849 25.07 22.1 71.7 22 -0.4 31.3
17:15 1020 30.12 849 25.07 22.8 73.1 21 -0.5 31.1
17:20 1020 30.12 849 25.07 23.3 73.9 21 -0 32
17:25 1020 30.12 849 25.07 23 73.4 22 0.4 32.7
17:30 1020 30.12 849 25.07 22.8 73 21 -0.4 31.3
17:35 1020 30.12 849 25.07 22.4 72.4 22 -0.2 31.6
17:40 1020 30.12 849 25.07 22.5 72.6 21 -0.5 31.1
17:45 1020 30.12 849 25.07 22.6 72.6 23 0.3 32.6
17:50 1020 30.12 849 25.07 22.3 72.1 23 0.1 32.1
17:55 1020 30.12 849 25.07 22.3 72.1 22 -0.6 31
18:00 1020 30.12 849 25.07 22.5 72.5 23 0.3 32.5
18:05 1020 30.12 849 25.07 23 73.4 21 -0.3 31.5
18:10 1020 30.12 849 25.07 23 73.3 22 0.3 32.6
18:15 1020 30.12 849 25.07 22.1 71.7 22 -0.3 31.5
18:20 1020 30.12 849 25.07 22.3 72.1 22 -0.6 31
18:25 1019 30.09 849 25.07 22.5 72.4 22 0.1 32.1
18:30 1019 30.09 849 25.07 22.5 72.4 23 0.2 32.4
18:35 1019 30.09 849 25.07 22.6 72.7 22 0.3 32.6
18:40 1019 30.09 849 25.07 22.4 72.3 22 -0.1 31.8
18:45 1019 30.09 849 25.07 22.3 72.1 22 -0 32
18:50 1019 30.09 849 25.07 22.6 72.6 22 0.3 32.5
18:55 1019 30.09 849 25.07 22.9 73.3 23 0.7 33.2
19:00 1019 30.09 849 25.07 23.2 73.7 23 1.2 34.1
19:05 1019 30.09 849 25.07 22.4 72.3 24 1.1 34
19:10 1019 30.09 849 25.07 21.6 70.8 25 1.1 34
19:15 1019 30.09 849 25.07 21.8 71.3 23 0.2 32.4
19:20 1019 30.09 849 25.07 22.1 71.7 25 1.1 34
19:25 1019 30.09 849 25.07 22.2 72 24 1 33.7
19:30 1019 30.09 848 25.04 21.9 71.4 25 1.4 34.5
19:35 1019 30.09 849 25.07 21.4 70.6 26 1.5 34.7
19:40 1019 30.09 848 25.04 21.2 70.1 27 1.4 34.5
19:45 1019 30.09 848 25.04 20.9 69.7 26 1.1 34
19:50 1019 30.09 849 25.07 20.7 69.3 27 1.3 34.4
19:55 1019 30.09 849 25.07 20.7 69.2 27 1.3 34.3
20:00 1019 30.09 848 25.04 20.6 69.1 28 1.5 34.6
20:05 1019 30.09 848 25.04 20.6 69.1 28 1.8 35.2
20:10 1019 30.09 848 25.04 20.5 68.8 28 1.5 34.7
20:15 1019 30.09 848 25.04 20.4 68.6 29 1.8 35.2
20:20 1019 30.09 848 25.04 20.3 68.5 29 1.7 35
20:25 1019 30.09 848 25.04 20.2 68.4 28 1.5 34.6
20:30 1019 30.09 848 25.04 19.9 67.9 27 0.6 33
20:35 1019 30.09 848 25.04 19.7 67.4 27 0.2 32.4
20:40 1019 30.09 848 25.04 19.5 67.1 27 0.3 32.5
20:45 1019 30.09 848 25.04 19.2 66.5 28 0.2 32.4
20:50 1019 30.09 848 25.04 19 66.2 28 0.3 32.5
20:55 1019 30.09 848 25.04 18.8 65.9 28 -0 31.9
21:00 1019 30.09 848 25.04 18.8 65.8 28 0 32.1
21:05 1019 30.09 848 25.04 18.6 65.5 29 0.1 32.3
21:10 1019 30.09 848 25.04 18.3 64.9 30 0.3 32.6
21:15 1019 30.09 848 25.04 18.1 64.6 30 0.4 32.6
21:20 1019 30.09 848 25.04 17.9 64.3 29 -0.2 31.6
21:25 1019 30.09 848 25.04 18.1 64.5 28 -0.4 31.2
21:30 1019 30.09 848 25.04 18.1 64.6 29 -0.3 31.5
21:35 1019 30.09 848 25.04 17.9 64.2 29 -0.1 31.8
21:40 1019 30.09 848 25.04 17.7 63.9 30 0 32.1
21:45 1019 30.09 848 25.04 17.7 63.9 28 -0.7 30.8
21:50 1019 30.09 848 25.04 17.6 63.7 29 -0.4 31.2
21:55 1019 30.09 848 25.04 17.4 63.4 29 -0.5 31
22:00 1019 30.09 849 25.07 17.3 63.1 29 -0.6 30.9
22:05 1019 30.09 849 25.07 17.3 63.2 29 -0.7 30.8
22:10 1019 30.09 849 25.07 17.4 63.4 29 -0.5 31.2
22:15 1019 30.09 849 25.07 17.5 63.5 30 -0.2 31.7
22:20 1019 30.09 849 25.07 17.4 63.2 31 -0 31.9
22:25 1019 30.09 849 25.07 17.3 63.1 31 0.1 32.2
22:30 1019 30.09 849 25.07 17.2 63 31 0.2 32.3
22:35 1019 30.09 849 25.07 17.1 62.9 32 0.4 32.7
22:40 1019 30.09 849 25.07 17.1 62.8 32 0.5 32.8
22:45 1019 30.09 849 25.07 17.1 62.9 32 0.5 32.9
22:50 1019 30.09 849 25.07 17.2 62.9 32 0.5 32.9
22:55 1019 30.09 848 25.04 17.1 62.7 33 0.6 33.1
23:00 1019 30.09 848 25.04 16.9 62.3 33 0.8 33.4
23:05 1019 30.09 848 25.04 16.7 62.1 34 0.8 33.4
23:10 1019 30.09 848 25.04 16.7 62 34 0.7 33.3
23:15 1019 30.09 848 25.04 16.6 62 34 0.9 33.7
23:20 1019 30.09 848 25.04 16.5 61.6 34 0.8 33.5
23:25 1019 30.09 848 25.04 16.5 61.8 34 0.6 33.1
23:30 1019 30.09 848 25.04 16.5 61.7 33 0.4 32.7
23:35 1019 30.09 848 25.04 16.4 61.5 33 0.4 32.7
23:40 1019 30.09 848 25.04 16.3 61.4 33 0.3 32.5
23:45 1019 30.09 848 25.04 16.3 61.3 33 0.2 32.4
23:50 1019 30.09 848 25.04 16.3 61.4 33 0.1 32.2
23:55 1019 30.09 848 25.04 16.4 61.5 32 -0.1 31.8
24:00 1019 30.09 848 25.04 16.4 61.6 32 -0.1 31.9